Time;durP1;ratioP1;P1;durP2;ratioP2;P2;SDS_P1;SDS_P2;PMS_P1;PMS_P2;Temp;Humidity;BMP_temperature;BMP_pressure;BME280_temperature;BME280_humidity;BME280_pressure;Samples;Min_cycle;Max_cycle;Signal;HPM_P1;HPM_P2
2022/05/06 00:02:05;;;;;;;36.40;16.73;;;;;;;;;;5024944;28;20145;-79
2022/05/06 00:04:31;;;;;;;33.33;16.55;;;;;;;;;;5008860;28;20039;-79
2022/05/06 00:06:58;;;;;;;31.45;15.98;;;;;;;;;;5010301;28;20432;-79
2022/05/06 00:09:24;;;;;;;26.98;13.77;;;;;;;;;;5008188;28;20145;-79
2022/05/06 00:11:53;;;;;;;27.55;13.88;;;;;;;;;;5009579;28;20161;-79
2022/05/06 00:14:20;;;;;;;25.13;12.70;;;;;;;;;;5007395;28;20122;-79
2022/05/06 00:16:46;;;;;;;29.17;12.93;;;;;;;;;;5006727;28;20061;-79
2022/05/06 00:19:12;;;;;;;23.65;12.45;;;;;;;;;;5008069;28;20146;-79
2022/05/06 00:21:39;;;;;;;24.60;12.18;;;;;;;;;;5008299;28;20068;-79
2022/05/06 00:24:05;;;;;;;24.15;12.45;;;;;;;;;;5010372;28;20058;-79
2022/05/06 00:26:32;;;;;;;23.40;12.73;;;;;;;;;;5008751;28;20050;-78
2022/05/06 00:28:58;;;;;;;23.40;12.50;;;;;;;;;;5006352;28;20058;-78
2022/05/06 00:31:25;;;;;;;23.92;12.63;;;;;;;;;;5005098;28;20062;-78
2022/05/06 00:33:51;;;;;;;26.52;13.77;;;;;;;;;;4988194;28;20058;-79
2022/05/06 00:36:17;;;;;;;28.65;13.50;;;;;;;;;;5009339;28;20054;-79
2022/05/06 00:38:44;;;;;;;31.15;14.15;;;;;;;;;;5006133;28;20515;-78
2022/05/06 00:41:10;;;;;;;29.20;14.20;;;;;;;;;;5005395;28;20054;-78
2022/05/06 00:43:40;;;;;;;24.80;12.82;;;;;;;;;;5007175;28;20571;-78
2022/05/06 00:46:10;;;;;;;29.15;14.77;;;;;;;;;;5007820;28;20129;-79
2022/05/06 00:48:37;;;;;;;31.25;14.57;;;;;;;;;;5007276;28;20452;-79
2022/05/06 00:51:03;;;;;;;27.17;13.65;;;;;;;;;;5007729;28;20062;-79
2022/05/06 00:53:31;;;;;;;27.50;12.65;;;;;;;;;;5006315;28;20064;-79
2022/05/06 00:55:57;;;;;;;21.77;11.10;;;;;;;;;;5007783;28;20095;-78
2022/05/06 00:58:24;;;;;;;19.92;10.60;;;;;;;;;;5007236;28;20145;-79
2022/05/06 01:00:50;;;;;;;21.98;10.48;;;;;;;;;;5008779;28;20082;-79
2022/05/06 01:03:16;;;;;;;22.48;9.43;;;;;;;;;;5007497;28;20120;-79
2022/05/06 01:05:43;;;;;;;19.52;9.48;;;;;;;;;;5006933;28;20137;-79
2022/05/06 01:08:09;;;;;;;18.65;9.95;;;;;;;;;;5006318;28;20134;-79
2022/05/06 01:10:37;;;;;;;21.00;11.32;;;;;;;;;;5007754;28;20112;-79
2022/05/06 01:13:04;;;;;;;20.20;11.93;;;;;;;;;;5006367;28;20065;-79
2022/05/06 01:15:30;;;;;;;27.70;13.88;;;;;;;;;;4989315;28;20058;-79
2022/05/06 01:17:57;;;;;;;31.10;14.50;;;;;;;;;;4988979;28;20069;-78
2022/05/06 01:20:24;;;;;;;33.70;15.48;;;;;;;;;;5005516;28;20080;-78
2022/05/06 01:22:52;;;;;;;36.03;16.58;;;;;;;;;;5005998;28;20050;-78
2022/05/06 01:25:20;;;;;;;47.38;17.90;;;;;;;;;;5006320;28;20509;-79
2022/05/06 01:27:51;;;;;;;38.97;17.10;;;;;;;;;;5005312;28;20950;-79
2022/05/06 01:30:36;;;;;;;49.78;20.80;;;;;;;;;;5006698;28;21003;-79
2022/05/06 01:33:06;;;;;;;65.70;23.83;;;;;;;;;;5022857;28;20852;-79
2022/05/06 01:35:53;;;;;;;61.38;23.35;;;;;;;;;;5007863;28;20315;-79
2022/05/06 01:38:38;;;;;;;49.08;20.77;;;;;;;;;;4988450;28;20062;-79
2022/05/06 01:41:08;;;;;;;39.33;18.67;;;;;;;;;;5006084;28;20564;-78
2022/05/06 01:43:42;;;;;;;33.63;17.20;;;;;;;;;;5005240;28;20061;-79
2022/05/06 01:46:13;;;;;;;45.33;18.90;;;;;;;;;;5008207;28;20055;-78
2022/05/06 01:48:41;;;;;;;36.15;18.30;;;;;;;;;;5006387;28;20488;-79
2022/05/06 01:51:09;;;;;;;34.00;17.35;;;;;;;;;;5005104;28;20064;-78
2022/05/06 01:53:35;;;;;;;54.67;16.35;;;;;;;;;;5005747;28;20580;-79
2022/05/06 01:56:02;;;;;;;81.93;18.23;;;;;;;;;;5004766;28;20144;-79
2022/05/06 01:58:28;;;;;;;47.55;18.02;;;;;;;;;;5006641;28;20141;-78
2022/05/06 02:00:55;;;;;;;78.15;19.65;;;;;;;;;;5007039;28;20144;-79
2022/05/06 02:06:07;;;;;;;64.30;17.80;;;;;;;;;;5010512;28;20120;-79
2022/05/06 02:08:33;;;;;;;145.00;19.15;;;;;;;;;;5010277;28;20039;-78
2022/05/06 02:11:01;;;;;;;122.10;18.48;;;;;;;;;;5011379;28;20149;-79
2022/05/06 02:13:27;;;;;;;85.43;18.60;;;;;;;;;;5024992;28;20134;-79
2022/05/06 02:15:53;;;;;;;80.72;18.20;;;;;;;;;;5009910;28;20541;-78
2022/05/06 02:18:20;;;;;;;69.25;18.70;;;;;;;;;;5006976;28;20063;-78
2022/05/06 02:20:46;;;;;;;109.63;20.70;;;;;;;;;;5006262;28;20145;-78
2022/05/06 02:23:12;;;;;;;82.60;18.92;;;;;;;;;;5009539;28;20074;-79
2022/05/06 02:25:39;;;;;;;94.38;17.92;;;;;;;;;;5010642;28;20697;-79
2022/05/06 02:28:07;;;;;;;100.50;19.80;;;;;;;;;;5011275;28;20796;-79
2022/05/06 02:33:23;;;;;;;70.93;17.63;;;;;;;;;;5010236;28;20050;-79
2022/05/06 02:35:50;;;;;;;72.50;17.98;;;;;;;;;;5008825;28;20066;-79
2022/05/06 02:38:17;;;;;;;144.15;21.25;;;;;;;;;;5007741;28;20150;-79
2022/05/06 02:40:43;;;;;;;128.80;20.38;;;;;;;;;;5009369;28;20560;-79
2022/05/06 02:43:10;;;;;;;93.10;19.38;;;;;;;;;;5025015;28;20142;-79
2022/05/06 02:45:36;;;;;;;114.82;18.75;;;;;;;;;;5008430;28;20141;-79
2022/05/06 02:48:03;;;;;;;102.93;19.50;;;;;;;;;;5009380;28;20504;-80
2022/05/06 02:50:29;;;;;;;50.72;17.65;;;;;;;;;;5007036;28;20054;-79
2022/05/06 02:52:55;;;;;;;67.93;17.85;;;;;;;;;;5008215;28;20108;-78
2022/05/06 02:55:23;;;;;;;78.20;18.48;;;;;;;;;;5008399;28;20089;-78
2022/05/06 02:57:51;;;;;;;109.68;18.52;;;;;;;;;;5007542;28;20058;-78
2022/05/06 03:00:17;;;;;;;113.85;18.65;;;;;;;;;;5008838;28;20633;-79
2022/05/06 03:02:44;;;;;;;80.03;18.10;;;;;;;;;;5007262;28;20110;-79
2022/05/06 03:05:10;;;;;;;35.03;15.25;;;;;;;;;;5008218;28;20956;-79
2022/05/06 03:07:37;;;;;;;36.00;15.82;;;;;;;;;;5008822;28;20077;-80
2022/05/06 03:10:03;;;;;;;54.97;17.08;;;;;;;;;;5007275;28;20108;-78
2022/05/06 03:12:31;;;;;;;60.50;16.30;;;;;;;;;;5006536;28;20145;-79
2022/05/06 03:14:58;;;;;;;72.28;15.48;;;;;;;;;;4995493;28;20059;-79
2022/05/06 03:17:24;;;;;;;73.13;15.88;;;;;;;;;;5017644;28;20054;-78
2022/05/06 03:19:51;;;;;;;80.20;17.00;;;;;;;;;;5013035;28;20086;-78
2022/05/06 03:22:17;;;;;;;57.70;15.05;;;;;;;;;;5012608;28;20050;-78
2022/05/06 03:24:44;;;;;;;61.60;14.73;;;;;;;;;;5010162;28;20115;-79
2022/05/06 03:29:57;;;;;;;83.57;15.98;;;;;;;;;;5008580;28;20523;-79
2022/05/06 03:32:24;;;;;;;31.58;14.77;;;;;;;;;;5006581;28;20058;-80
2022/05/06 03:34:51;;;;;;;31.70;13.63;;;;;;;;;;5024048;28;20133;-79
2022/05/06 03:37:17;;;;;;;31.00;13.75;;;;;;;;;;5006361;28;20058;-80
2022/05/06 03:39:44;;;;;;;36.63;14.45;;;;;;;;;;5005592;28;20529;-79
2022/05/06 03:42:10;;;;;;;82.18;15.80;;;;;;;;;;5008037;28;20054;-79
2022/05/06 03:44:36;;;;;;;75.53;16.10;;;;;;;;;;5003539;28;20059;-80
2022/05/06 03:47:03;;;;;;;63.67;14.32;;;;;;;;;;5007300;28;20301;-80
2022/05/06 03:49:29;;;;;;;43.65;13.85;;;;;;;;;;5023897;28;20069;-79
2022/05/06 03:51:56;;;;;;;50.22;14.65;;;;;;;;;;5007948;28;20141;-80
2022/05/06 03:54:22;;;;;;;48.75;13.85;;;;;;;;;;5006063;28;20177;-79
2022/05/06 03:56:49;;;;;;;76.00;14.68;;;;;;;;;;5003935;28;20141;-79
2022/05/06 03:59:15;;;;;;;72.15;14.07;;;;;;;;;;5002555;28;20503;-79
2022/05/06 04:01:42;;;;;;;80.35;13.95;;;;;;;;;;5002513;28;20137;-80
2022/05/06 04:04:08;;;;;;;42.63;14.00;;;;;;;;;;5003345;28;20145;-79
2022/05/06 04:06:34;;;;;;;89.45;14.25;;;;;;;;;;5003800;28;20065;-79
2022/05/06 04:09:01;;;;;;;48.28;13.13;;;;;;;;;;5000621;28;20062;-79
2022/05/06 04:11:27;;;;;;;70.18;13.82;;;;;;;;;;5004368;28;20072;-79
2022/05/06 04:13:53;;;;;;;98.32;13.20;;;;;;;;;;5004619;28;20062;-79
2022/05/06 04:16:20;;;;;;;110.25;14.05;;;;;;;;;;5002460;28;20141;-79
2022/05/06 04:18:46;;;;;;;72.38;13.48;;;;;;;;;;5003896;28;20060;-79
2022/05/06 04:23:57;;;;;;;89.93;13.18;;;;;;;;;;4986209;28;20058;-79
2022/05/06 04:26:23;;;;;;;56.80;13.07;;;;;;;;;;5004611;28;20056;-79
2022/05/06 04:28:50;;;;;;;70.22;13.95;;;;;;;;;;5002443;28;20060;-79
2022/05/06 04:31:17;;;;;;;73.85;14.10;;;;;;;;;;5002795;28;20138;-79
2022/05/06 04:33:43;;;;;;;119.20;14.50;;;;;;;;;;5015814;28;20321;-79
2022/05/06 04:36:10;;;;;;;43.63;12.80;;;;;;;;;;5005784;28;20074;-79
2022/05/06 04:38:36;;;;;;;75.90;12.82;;;;;;;;;;5012575;28;20157;-79
2022/05/06 04:41:03;;;;;;;45.00;12.60;;;;;;;;;;5004414;28;20402;-79
2022/05/06 04:43:30;;;;;;;61.30;13.32;;;;;;;;;;5005623;28;20154;-79
2022/05/06 04:45:57;;;;;;;114.30;15.30;;;;;;;;;;5003528;28;20596;-79
2022/05/06 04:48:24;;;;;;;108.85;15.52;;;;;;;;;;5002489;28;20137;-79
2022/05/06 04:50:50;;;;;;;94.13;13.50;;;;;;;;;;5003438;28;20050;-79
2022/05/06 04:53:17;;;;;;;83.13;14.18;;;;;;;;;;5003433;28;20058;-80
2022/05/06 04:55:45;;;;;;;125.70;14.98;;;;;;;;;;5003568;28;21111;-79
2022/05/06 04:58:12;;;;;;;107.03;14.48;;;;;;;;;;5003449;28;20091;-79
2022/05/06 05:00:38;;;;;;;142.23;15.25;;;;;;;;;;5002537;28;20873;-79
2022/05/06 05:03:04;;;;;;;54.97;14.13;;;;;;;;;;5004073;28;20058;-79
2022/05/06 05:05:31;;;;;;;72.78;15.35;;;;;;;;;;5002933;28;20134;-79
2022/05/06 05:07:57;;;;;;;53.83;14.50;;;;;;;;;;5006006;28;20264;-79
2022/05/06 05:10:24;;;;;;;74.35;14.45;;;;;;;;;;5005853;28;20046;-79
2022/05/06 05:12:51;;;;;;;58.63;13.18;;;;;;;;;;5003853;28;20141;-78
2022/05/06 05:15:17;;;;;;;112.75;14.65;;;;;;;;;;5007071;28;20050;-79
2022/05/06 05:17:44;;;;;;;95.80;14.27;;;;;;;;;;5004904;28;20054;-78
2022/05/06 05:20:11;;;;;;;147.25;16.65;;;;;;;;;;5005083;28;20494;-79
2022/05/06 05:22:38;;;;;;;92.10;16.38;;;;;;;;;;5006744;28;20054;-79
2022/05/06 05:25:05;;;;;;;41.63;14.13;;;;;;;;;;5005484;28;20057;-78
2022/05/06 05:27:31;;;;;;;71.00;15.10;;;;;;;;;;5005838;28;20058;-79
2022/05/06 05:29:58;;;;;;;100.22;14.70;;;;;;;;;;5006790;28;20101;-79
2022/05/06 05:32:25;;;;;;;56.80;15.38;;;;;;;;;;5005343;28;20058;-80
2022/05/06 05:34:52;;;;;;;79.22;14.55;;;;;;;;;;5003932;28;20154;-80
2022/05/06 05:37:18;;;;;;;76.00;14.45;;;;;;;;;;5004903;28;20058;-80
2022/05/06 05:39:45;;;;;;;81.97;16.10;;;;;;;;;;5006539;28;20097;-80
2022/05/06 05:42:13;;;;;;;90.60;16.00;;;;;;;;;;5022016;28;20110;-79
2022/05/06 05:50:09;;;;;;;58.10;14.35;;;;;;;;;;5007135;28;20407;-79
2022/05/06 05:52:36;;;;;;;44.90;15.10;;;;;;;;;;5003526;28;20484;-79
2022/05/06 05:55:02;;;;;;;93.22;16.08;;;;;;;;;;5004496;28;20046;-79
2022/05/06 05:57:29;;;;;;;42.80;14.13;;;;;;;;;;5017718;28;20137;-79
2022/05/06 05:59:55;;;;;;;64.65;15.30;;;;;;;;;;4991477;28;20051;-79
2022/05/06 06:02:22;;;;;;;84.70;15.27;;;;;;;;;;5006574;28;20133;-79
2022/05/06 06:04:49;;;;;;;72.93;15.60;;;;;;;;;;5004686;28;20066;-79
2022/05/06 06:07:15;;;;;;;50.58;15.13;;;;;;;;;;5002715;28;20088;-79
2022/05/06 06:09:42;;;;;;;45.35;14.05;;;;;;;;;;5005529;28;20052;-79
2022/05/06 06:12:11;;;;;;;39.38;14.25;;;;;;;;;;5004501;28;20583;-79
2022/05/06 06:14:38;;;;;;;37.47;13.40;;;;;;;;;;5005357;28;20050;-80
2022/05/06 06:17:04;;;;;;;37.38;13.73;;;;;;;;;;5003438;28;20054;-79
2022/05/06 06:19:32;;;;;;;46.47;13.85;;;;;;;;;;5002711;28;20093;-79
2022/05/06 06:21:58;;;;;;;34.28;12.32;;;;;;;;;;5002157;28;20065;-79
2022/05/06 06:24:25;;;;;;;39.40;12.50;;;;;;;;;;5002210;28;20055;-79
2022/05/06 06:26:51;;;;;;;36.92;12.38;;;;;;;;;;5004061;28;20568;-80
2022/05/06 06:29:17;;;;;;;41.25;12.75;;;;;;;;;;5003893;28;20058;-79
2022/05/06 06:31:43;;;;;;;24.58;12.25;;;;;;;;;;5002043;28;20050;-79
2022/05/06 06:34:10;;;;;;;31.00;11.77;;;;;;;;;;5006368;28;20059;-80
2022/05/06 06:36:36;;;;;;;34.63;11.77;;;;;;;;;;4986061;28;20050;-80
2022/05/06 06:39:03;;;;;;;34.83;11.27;;;;;;;;;;5020166;28;20844;-79
2022/05/06 06:41:29;;;;;;;22.10;11.07;;;;;;;;;;4992070;28;20073;-79
2022/05/06 06:43:56;;;;;;;16.88;9.05;;;;;;;;;;5000618;28;20897;-79
2022/05/06 06:46:22;;;;;;;18.88;9.32;;;;;;;;;;5001302;28;20104;-79
2022/05/06 06:48:49;;;;;;;17.20;8.90;;;;;;;;;;5003378;28;20073;-79
2022/05/06 06:51:15;;;;;;;17.83;9.30;;;;;;;;;;5019624;28;20073;-79
2022/05/06 06:53:41;;;;;;;17.88;9.48;;;;;;;;;;5006464;28;20051;-79
2022/05/06 06:56:08;;;;;;;15.85;9.05;;;;;;;;;;5006149;28;20089;-79
2022/05/06 06:58:34;;;;;;;17.33;9.25;;;;;;;;;;4996305;28;20046;-80
2022/05/06 07:01:02;;;;;;;18.83;9.18;;;;;;;;;;5004872;28;20062;-79
2022/05/06 07:03:28;;;;;;;15.73;8.55;;;;;;;;;;5009578;28;20600;-79
2022/05/06 07:14:09;;;;;;;17.23;8.77;;;;;;;;;;5008908;28;20656;-80
2022/05/06 07:16:38;;;;;;;17.08;9.52;;;;;;;;;;5009146;28;20056;-79
2022/05/06 07:19:04;;;;;;;18.40;10.48;;;;;;;;;;5007491;28;20650;-80
2022/05/06 07:21:31;;;;;;;17.42;9.73;;;;;;;;;;4990102;28;20513;-78
2022/05/06 07:24:03;;;;;;;16.13;9.85;;;;;;;;;;5007489;28;20048;-80
2022/05/06 07:26:30;;;;;;;16.52;9.88;;;;;;;;;;5008255;28;20085;-79
2022/05/06 07:28:57;;;;;;;16.60;9.98;;;;;;;;;;5007765;28;20493;-79
2022/05/06 07:31:23;;;;;;;17.27;9.90;;;;;;;;;;5005852;28;20195;-79
2022/05/06 07:33:49;;;;;;;18.33;9.80;;;;;;;;;;5007446;28;20145;-80
2022/05/06 07:36:16;;;;;;;18.10;10.63;;;;;;;;;;5005695;28;20062;-79
2022/05/06 07:38:42;;;;;;;16.67;9.40;;;;;;;;;;5007445;28;20145;-79
2022/05/06 07:41:08;;;;;;;19.30;10.75;;;;;;;;;;5008726;28;20063;-79
2022/05/06 07:43:35;;;;;;;16.10;9.40;;;;;;;;;;5006436;28;20983;-79
2022/05/06 07:46:02;;;;;;;15.45;9.52;;;;;;;;;;5007322;28;20213;-79
2022/05/06 07:48:28;;;;;;;16.30;10.20;;;;;;;;;;5007202;28;20585;-79
2022/05/06 07:51:03;;;;;;;14.40;9.52;;;;;;;;;;5004343;28;20109;-79
2022/05/06 07:53:29;;;;;;;15.60;9.27;;;;;;;;;;5007355;28;20110;-79
2022/05/06 07:55:56;;;;;;;17.65;10.38;;;;;;;;;;5006261;28;20061;-79
2022/05/06 07:58:22;;;;;;;15.65;9.88;;;;;;;;;;5005874;28;20138;-79
2022/05/06 08:00:50;;;;;;;15.75;8.85;;;;;;;;;;5004456;28;20058;-79
2022/05/06 08:06:07;;;;;;;14.43;9.07;;;;;;;;;;5008418;28;20054;-78
2022/05/06 08:08:33;;;;;;;15.05;9.20;;;;;;;;;;5003428;28;20109;-77
2022/05/06 08:11:00;;;;;;;15.25;9.75;;;;;;;;;;5001725;28;20097;-79
2022/05/06 08:13:26;;;;;;;14.40;9.18;;;;;;;;;;5004502;28;20562;-79
2022/05/06 08:15:54;;;;;;;14.63;9.30;;;;;;;;;;5006556;28;20050;-79
2022/05/06 08:18:21;;;;;;;13.77;8.93;;;;;;;;;;5006566;28;20054;-79
2022/05/06 08:20:48;;;;;;;14.60;9.98;;;;;;;;;;5004868;28;20060;-79
2022/05/06 08:23:14;;;;;;;13.40;8.73;;;;;;;;;;5004966;28;20109;-79
2022/05/06 08:25:42;;;;;;;13.57;8.63;;;;;;;;;;5004465;28;20047;-79
2022/05/06 08:28:09;;;;;;;13.52;8.55;;;;;;;;;;5003227;28;20781;-77
2022/05/06 08:30:37;;;;;;;12.23;7.63;;;;;;;;;;4999466;28;20058;-77
2022/05/06 08:33:03;;;;;;;12.88;8.57;;;;;;;;;;4998463;28;20070;-78
2022/05/06 08:35:30;;;;;;;13.35;8.68;;;;;;;;;;5006041;28;20052;-79
2022/05/06 08:37:58;;;;;;;11.68;7.95;;;;;;;;;;5002284;28;20566;-79
2022/05/06 08:40:26;;;;;;;12.93;8.75;;;;;;;;;;4995342;28;20058;-78
2022/05/06 08:42:52;;;;;;;11.40;7.22;;;;;;;;;;4999448;28;20144;-79
2022/05/06 08:50:53;;;;;;;12.90;8.88;;;;;;;;;;4992399;28;20095;-78
2022/05/06 08:53:23;;;;;;;11.18;8.30;;;;;;;;;;4996480;28;20054;-78
2022/05/06 08:55:51;;;;;;;11.68;7.78;;;;;;;;;;4984494;28;20055;-78
2022/05/06 08:58:18;;;;;;;12.07;8.52;;;;;;;;;;4985714;28;20547;-79
2022/05/06 09:00:45;;;;;;;10.45;7.45;;;;;;;;;;4986029;28;22460;-78
2022/05/06 09:03:15;;;;;;;13.00;7.65;;;;;;;;;;5006037;28;20073;-78
2022/05/06 09:05:49;;;;;;;9.80;7.22;;;;;;;;;;5003780;28;20544;-78
2022/05/06 09:08:15;;;;;;;10.27;7.80;;;;;;;;;;5005628;28;20536;-78
2022/05/06 09:10:41;;;;;;;10.63;7.18;;;;;;;;;;5003453;28;20058;-78
2022/05/06 09:13:08;;;;;;;10.05;7.35;;;;;;;;;;5002455;28;20067;-78
2022/05/06 09:18:21;;;;;;;12.98;7.85;;;;;;;;;;5001136;28;20133;-79
2022/05/06 09:21:08;;;;;;;11.10;7.60;;;;;;;;;;5003656;28;20141;-77
2022/05/06 09:23:34;;;;;;;11.75;7.32;;;;;;;;;;5002891;28;20050;-78
2022/05/06 09:25:59;;;;;;;8.50;6.65;;;;;;;;;;5002950;28;20045;-77
2022/05/06 09:28:27;;;;;;;9.23;6.53;;;;;;;;;;5002102;28;20064;-77
2022/05/06 09:31:01;;;;;;;8.18;6.40;;;;;;;;;;5003702;28;20915;-78
2022/05/06 09:33:29;;;;;;;8.43;6.28;;;;;;;;;;4998050;28;20046;-78
2022/05/06 09:35:56;;;;;;;8.80;5.85;;;;;;;;;;4982371;28;20058;-78
2022/05/06 09:38:25;;;;;;;8.93;6.15;;;;;;;;;;5019969;28;20370;-78
2022/05/06 09:40:51;;;;;;;8.45;6.10;;;;;;;;;;5001695;28;20064;-77
2022/05/06 09:43:18;;;;;;;9.38;6.30;;;;;;;;;;5004008;28;20060;-77
2022/05/06 09:45:46;;;;;;;8.00;6.10;;;;;;;;;;4997695;28;20058;-77
2022/05/06 09:48:14;;;;;;;7.90;5.80;;;;;;;;;;4999767;28;20063;-77
2022/05/06 09:50:41;;;;;;;7.88;5.50;;;;;;;;;;4997369;28;20145;-77
2022/05/06 09:53:16;;;;;;;7.90;5.70;;;;;;;;;;5004560;28;20046;-77
2022/05/06 09:55:46;;;;;;;6.88;5.38;;;;;;;;;;5002424;28;20134;-80
2022/05/06 09:58:13;;;;;;;7.28;5.18;;;;;;;;;;5003479;28;20602;-77
2022/05/06 10:00:39;;;;;;;7.60;5.60;;;;;;;;;;5003080;28;20054;-77
2022/05/06 10:03:06;;;;;;;7.57;5.28;;;;;;;;;;5003838;28;20137;-77
2022/05/06 10:05:34;;;;;;;9.27;6.00;;;;;;;;;;5017348;28;20054;-77
2022/05/06 10:08:06;;;;;;;7.95;5.53;;;;;;;;;;5003877;28;20522;-77
2022/05/06 10:10:38;;;;;;;9.50;6.10;;;;;;;;;;5001124;28;20058;-77
2022/05/06 10:13:09;;;;;;;7.03;5.30;;;;;;;;;;5001788;28;20046;-77
2022/05/06 10:15:35;;;;;;;7.75;5.47;;;;;;;;;;5001363;28;20394;-78
2022/05/06 10:18:03;;;;;;;8.50;5.80;;;;;;;;;;5002678;28;20061;-77
2022/05/06 10:20:38;;;;;;;8.02;5.45;;;;;;;;;;5016559;28;20186;-77
2022/05/06 10:23:15;;;;;;;8.60;6.05;;;;;;;;;;5003317;28;20506;-78
2022/05/06 10:25:42;;;;;;;8.52;5.50;;;;;;;;;;5005680;28;20566;-78
2022/05/06 10:34:07;;;;;;;7.45;5.38;;;;;;;;;;5005266;28;20855;-78
2022/05/06 10:36:41;;;;;;;7.97;5.90;;;;;;;;;;5005327;28;20157;-78
2022/05/06 10:39:26;;;;;;;7.32;5.55;;;;;;;;;;5008245;28;20540;-78
2022/05/06 10:42:02;;;;;;;8.48;5.53;;;;;;;;;;5001582;28;20062;-78
2022/05/06 10:44:38;;;;;;;7.20;5.50;;;;;;;;;;4991642;28;20076;-78
2022/05/06 10:47:10;;;;;;;7.88;5.57;;;;;;;;;;4988329;28;20051;-78
2022/05/06 10:49:40;;;;;;;8.63;6.03;;;;;;;;;;5003014;28;20062;-79
2022/05/06 10:52:15;;;;;;;8.82;6.25;;;;;;;;;;5003247;28;20062;-79
2022/05/06 10:54:42;;;;;;;8.68;6.40;;;;;;;;;;5004987;28;20161;-78
2022/05/06 10:57:09;;;;;;;10.00;6.38;;;;;;;;;;5003434;28;20493;-78
2022/05/06 10:59:54;;;;;;;9.50;6.55;;;;;;;;;;5006117;28;20474;-78
2022/05/06 11:02:22;;;;;;;9.57;6.28;;;;;;;;;;5019747;28;20099;-78
2022/05/06 11:04:54;;;;;;;9.38;6.35;;;;;;;;;;5002648;28;20058;-78
2022/05/06 11:07:21;;;;;;;8.10;6.28;;;;;;;;;;5005544;28;20502;-78
2022/05/06 11:09:47;;;;;;;9.77;6.03;;;;;;;;;;5007308;28;20088;-78
2022/05/06 11:12:30;;;;;;;7.03;4.88;;;;;;;;;;5005252;28;20050;-78
2022/05/06 11:14:57;;;;;;;7.05;5.32;;;;;;;;;;5006196;28;20085;-79
2022/05/06 11:17:25;;;;;;;7.88;5.70;;;;;;;;;;4991153;28;20050;-78
2022/05/06 11:19:51;;;;;;;9.50;6.20;;;;;;;;;;5002639;28;20050;-80
2022/05/06 11:22:20;;;;;;;8.35;5.75;;;;;;;;;;4998899;28;20094;-79
2022/05/06 11:24:46;;;;;;;9.57;5.70;;;;;;;;;;5004336;28;20105;-79
2022/05/06 11:27:17;;;;;;;8.85;6.35;;;;;;;;;;4992925;28;20046;-77
2022/05/06 11:29:47;;;;;;;8.00;5.80;;;;;;;;;;4985961;28;20501;-77
2022/05/06 11:32:15;;;;;;;9.70;6.22;;;;;;;;;;4982501;28;20080;-78
2022/05/06 11:34:47;;;;;;;7.70;5.57;;;;;;;;;;4996877;28;20050;-78
2022/05/06 11:37:40;;;;;;;9.80;5.97;;;;;;;;;;4997203;28;21958;-78
2022/05/06 11:40:32;;;;;;;8.85;6.05;;;;;;;;;;5004926;28;20425;-78
2022/05/06 11:42:59;;;;;;;9.60;6.65;;;;;;;;;;4999230;28;20215;-78
2022/05/06 11:48:12;;;;;;;8.35;6.07;;;;;;;;;;5000242;28;20153;-78
2022/05/06 11:50:39;;;;;;;7.65;5.47;;;;;;;;;;5003727;28;20145;-78
2022/05/06 11:53:08;;;;;;;9.55;6.68;;;;;;;;;;5002333;28;20106;-78
2022/05/06 11:55:39;;;;;;;9.30;6.47;;;;;;;;;;4988273;28;20061;-78
2022/05/06 11:58:06;;;;;;;9.15;6.50;;;;;;;;;;4985598;28;20061;-79
2022/05/06 12:00:33;;;;;;;10.38;7.55;;;;;;;;;;4985933;28;20062;-77
2022/05/06 12:03:07;;;;;;;12.35;7.78;;;;;;;;;;5002243;28;20051;-79
2022/05/06 12:05:34;;;;;;;11.18;7.60;;;;;;;;;;4997301;28;20125;-79
2022/05/06 12:08:00;;;;;;;11.90;7.30;;;;;;;;;;5006790;28;20085;-79
2022/05/06 12:10:28;;;;;;;9.15;7.15;;;;;;;;;;5001548;28;20065;-79
2022/05/06 12:12:58;;;;;;;9.48;6.53;;;;;;;;;;5004550;28;20068;-79
2022/05/06 12:15:31;;;;;;;12.43;7.78;;;;;;;;;;5000024;28;20181;-78
2022/05/06 12:18:09;;;;;;;11.80;7.70;;;;;;;;;;4992285;28;20853;-78
2022/05/06 12:20:37;;;;;;;10.25;7.63;;;;;;;;;;4992050;28;20061;-78
2022/05/06 12:23:08;;;;;;;10.80;7.60;;;;;;;;;;4995102;28;20141;-78
2022/05/06 12:25:35;;;;;;;11.75;8.32;;;;;;;;;;5001812;28;20520;-78
2022/05/06 12:28:02;;;;;;;12.68;8.30;;;;;;;;;;4988062;28;20120;-78
2022/05/06 12:30:29;;;;;;;14.60;8.30;;;;;;;;;;4999532;28;20130;-78
2022/05/06 12:33:05;;;;;;;12.05;7.70;;;;;;;;;;5000377;28;20064;-78
2022/05/06 12:35:52;;;;;;;10.98;7.18;;;;;;;;;;4999184;28;20077;-78
2022/05/06 12:38:18;;;;;;;14.75;8.00;;;;;;;;;;4991489;28;20046;-78
2022/05/06 12:40:45;;;;;;;14.55;9.15;;;;;;;;;;5000407;28;20058;-77
2022/05/06 12:43:12;;;;;;;14.75;9.30;;;;;;;;;;4997616;28;20059;-78
2022/05/06 12:45:50;;;;;;;16.75;9.60;;;;;;;;;;4988273;28;20053;-78
2022/05/06 12:51:03;;;;;;;15.20;9.35;;;;;;;;;;4998988;28;20052;-78
2022/05/06 12:53:29;;;;;;;16.52;10.48;;;;;;;;;;5000459;28;20153;-77
2022/05/06 12:55:55;;;;;;;15.82;11.75;;;;;;;;;;4996306;28;20065;-77
2022/05/06 12:58:27;;;;;;;19.30;12.35;;;;;;;;;;4996430;28;20086;-78
2022/05/06 13:00:54;;;;;;;16.58;11.52;;;;;;;;;;4998759;28;20050;-78
2022/05/06 13:03:21;;;;;;;18.45;11.88;;;;;;;;;;4995872;28;20189;-77
2022/05/06 13:05:48;;;;;;;19.90;10.88;;;;;;;;;;5008979;28;20086;-78
2022/05/06 13:08:14;;;;;;;19.02;12.00;;;;;;;;;;5016068;28;20046;-78
2022/05/06 13:10:41;;;;;;;17.20;11.43;;;;;;;;;;4999212;28;20241;-77
2022/05/06 13:13:15;;;;;;;17.00;11.40;;;;;;;;;;5014337;28;20062;-78
2022/05/06 13:15:42;;;;;;;18.92;12.20;;;;;;;;;;4984573;28;20145;-78
2022/05/06 13:18:09;;;;;;;17.70;12.18;;;;;;;;;;5003347;28;20141;-77
2022/05/06 13:20:35;;;;;;;19.55;12.93;;;;;;;;;;5000026;28;20145;-77
2022/05/06 13:23:02;;;;;;;18.27;11.98;;;;;;;;;;5001287;28;20062;-78
2022/05/06 13:25:28;;;;;;;22.65;13.38;;;;;;;;;;5002128;28;20137;-77
2022/05/06 13:27:55;;;;;;;18.80;11.40;;;;;;;;;;5001649;28;20133;-78
2022/05/06 13:30:21;;;;;;;16.95;12.10;;;;;;;;;;5003807;28;20062;-78
2022/05/06 13:32:47;;;;;;;16.52;10.55;;;;;;;;;;4997919;28;20064;-78
2022/05/06 13:35:14;;;;;;;16.80;9.85;;;;;;;;;;5002555;28;20149;-78
2022/05/06 13:37:40;;;;;;;18.40;11.77;;;;;;;;;;4995633;28;20461;-77
2022/05/06 13:40:07;;;;;;;16.55;10.80;;;;;;;;;;5002031;28;20081;-77
2022/05/06 13:42:33;;;;;;;17.85;11.02;;;;;;;;;;5002166;28;20054;-77
2022/05/06 13:44:59;;;;;;;19.33;11.95;;;;;;;;;;5004087;28;20525;-77
2022/05/06 13:47:26;;;;;;;17.70;10.55;;;;;;;;;;5002111;28;20521;-77
2022/05/06 13:49:53;;;;;;;16.17;10.65;;;;;;;;;;5001622;28;20440;-77
2022/05/06 13:52:25;;;;;;;15.25;10.70;;;;;;;;;;5002393;28;20099;-77
2022/05/06 13:54:51;;;;;;;16.23;10.05;;;;;;;;;;5001027;28;20057;-77
2022/05/06 14:00:24;;;;;;;17.48;10.57;;;;;;;;;;5009547;28;20058;-77
2022/05/06 14:02:52;;;;;;;15.98;10.43;;;;;;;;;;5007995;28;20525;-78
2022/05/06 14:05:23;;;;;;;15.25;9.82;;;;;;;;;;4999691;28;20501;-78
2022/05/06 14:07:49;;;;;;;16.38;10.50;;;;;;;;;;4995023;28;20529;-77
2022/05/06 14:10:16;;;;;;;16.55;11.02;;;;;;;;;;4994202;28;20331;-77
2022/05/06 14:12:43;;;;;;;16.10;11.32;;;;;;;;;;4997211;28;20107;-78
2022/05/06 14:15:10;;;;;;;17.02;11.90;;;;;;;;;;4999723;28;20071;-78
2022/05/06 14:17:36;;;;;;;18.48;12.23;;;;;;;;;;4999995;28;20070;-79
2022/05/06 14:20:03;;;;;;;16.60;11.35;;;;;;;;;;4990312;28;20050;-77
2022/05/06 14:22:29;;;;;;;17.75;12.55;;;;;;;;;;5014505;28;20141;-77
2022/05/06 14:24:56;;;;;;;17.95;11.55;;;;;;;;;;4997674;28;20054;-77
2022/05/06 14:27:23;;;;;;;19.15;11.55;;;;;;;;;;4999621;28;20054;-77
2022/05/06 14:29:49;;;;;;;15.98;11.55;;;;;;;;;;4993190;28;20065;-77
2022/05/06 14:32:15;;;;;;;16.15;10.93;;;;;;;;;;4999689;28;20059;-77
2022/05/06 14:34:42;;;;;;;14.23;10.27;;;;;;;;;;4994460;28;20066;-77
2022/05/06 14:37:09;;;;;;;14.63;10.65;;;;;;;;;;4999091;28;20535;-77
2022/05/06 14:39:37;;;;;;;17.05;12.10;;;;;;;;;;4999279;28;20117;-77
2022/05/06 14:42:04;;;;;;;15.23;11.38;;;;;;;;;;4997165;28;20090;-77
2022/05/06 14:44:31;;;;;;;15.25;11.13;;;;;;;;;;5014680;28;20827;-77
2022/05/06 14:46:59;;;;;;;14.35;10.55;;;;;;;;;;5001185;28;20066;-77
2022/05/06 14:49:26;;;;;;;15.70;11.43;;;;;;;;;;5001891;28;20536;-77
2022/05/06 14:51:52;;;;;;;13.77;10.68;;;;;;;;;;5009375;28;20226;-77
2022/05/06 14:54:18;;;;;;;17.33;11.30;;;;;;;;;;5002437;28;20576;-77
2022/05/06 14:56:45;;;;;;;13.15;10.13;;;;;;;;;;4999998;28;20145;-77
2022/05/06 14:59:11;;;;;;;15.48;10.57;;;;;;;;;;5001118;28;20497;-77
2022/05/06 15:01:37;;;;;;;15.52;11.45;;;;;;;;;;5014828;28;20149;-77
2022/05/06 15:04:04;;;;;;;16.27;11.60;;;;;;;;;;4998896;28;20536;-77
2022/05/06 15:06:30;;;;;;;13.85;10.48;;;;;;;;;;4999854;28;20054;-77
2022/05/06 15:08:57;;;;;;;16.42;10.43;;;;;;;;;;5002347;28;20545;-77
2022/05/06 15:11:23;;;;;;;12.13;9.48;;;;;;;;;;4995024;28;20057;-77
2022/05/06 15:13:49;;;;;;;11.70;9.15;;;;;;;;;;5000302;28;20555;-78
2022/05/06 15:16:16;;;;;;;13.10;10.77;;;;;;;;;;5001274;28;20042;-79
2022/05/06 15:21:27;;;;;;;11.52;9.85;;;;;;;;;;4995049;28;20064;-77